Impacts METAR Board
IDs:

KMDW - Chicago/Midway Intl, IL, US

Updated at: 2300 UTC 21 May 2022
Potential Impact None Slight Moderate High
Time 21/11Z 21/12Z 21/13Z 21/14Z 21/15Z 21/16Z 21/17Z 21/18Z 21/19Z 21/20Z 21/21Z 21/22Z 21/23Z
Temp60 61 61 63 63 63 62 60 58 57 59 60 61
Dewpt53 51 50 51 50 52 53 54 52 52 52 52 49
Altim29.89 29.86 29.92 29.96 30.00 29.97 29.99 30.07 30.06 30.03 30.00 29.98 30.02
VIS10 10 10 10 10 10 10 10 10 10 10 10 10
CIG90 110 180 180 70 60 80 60 55 21 22 28 49
CoverOVCOVCOVCOVCOVCOVCOVCOVCOVCOVCOVCOVCOVC
FltCatVFRVFRVFRVFRVFRVFRVFRVFRVFRMVFRMVFRMVFRVFR
WX-------------RA-RA-RA--------
WDir1403300210200330340030032036020310
WSpd3 10 0 7 8 14 11 0 7 11 6 7 4
WGst-- -- -- -- -- -- -- -- -- 24 -- -- --
Raw hourly METARs
KMDW 211053Z 14003KT 10SM FEW055 SCT075 BKN090 OVC140 16/12 A2989 RMK AO2 RAE47 SLP113 P0004 T01560117 $
KMDW 211153Z 33010KT 10SM FEW055 BKN110 BKN180 OVC240 16/11 A2986 RMK AO2 SLP104 60011 70058 T01610106 10167 20156 50005 $
KMDW 211253Z 00000KT 10SM FEW080 SCT100 BKN180 OVC240 16/10 A2992 RMK AO2 SLP128 T01610100 $
KMDW 211353Z 21007KT 10SM FEW080 SCT100 BKN180 OVC240 17/11 A2996 RMK AO2 LTG DSNT S PRESRR SLP141 CB DSNT S-SW T01720106 $
KMDW 211453Z 20008KT 10SM FEW030 BKN070 BKN180 OVC240 17/10 A3000 RMK AO2 LTG DSNT E SLP154 CB DSNT E-SE T01720100 51045 $
KMDW 211553Z 33014KT 10SM BKN060 BKN180 OVC250 17/11 A2997 RMK AO2 LTG DSNT W AND NW PRESFR SLP144 CB DSNT W-N-NE T01720111 $
KMDW 211653Z 34011KT 10SM -RA FEW030 BKN080 BKN110 OVC250 17/12 A2999 RMK AO2 SLP150 RAB20 P0001 T01670117 $
KMDW 211753Z 00000KT 10SM -RA SCT044 BKN060 BKN090 OVC250 16/12 A3007 RMK AO2 SLP178 P0003 60004 T01560122 10178 20150 53021 $
KMDW 211853Z 30007KT 10SM -RA SCT012 BKN055 BKN080 OVC250 14/11 A3006 RMK AO2 SLP178 P0005 T01440111 $
KMDW 211953Z 32011G24KT 10SM FEW012 BKN021 OVC100 14/11 A3003 RMK AO2 RAE52 SLP166 P0010 T01390111 $
KMDW 212053Z 36006KT 10SM FEW012 OVC022 15/11 A3000 RMK AO2 WSHFT 1940 SLP157 60015 T01500111 58021 $
KMDW 212153Z 02007KT 10SM FEW012 OVC028 16/11 A2998 RMK AO2 SLP150 T01560111 $
KMDW 212253Z 31004KT 10SM FEW012 SCT028 OVC049 16/09 A3002 RMK AO2 SLP161 T01610094 $



Page loaded:  23:17 UTC  |   04:17 PM Pacific  |   05:17 PM Mountain  |   06:17 PM Central  |   07:17 PM Eastern

 

ADVISORIES

FORECASTS

FORECASTS

OBSERVATIONS

USER TOOLS

ABOUT US